Time;durP1;ratioP1;P1;durP2;ratioP2;P2;SDS_P1;SDS_P2;PMS_P1;PMS_P2;Temp;Humidity;BMP_temperature;BMP_pressure;BME280_temperature;BME280_humidity;BME280_pressure;Samples;Min_cycle;Max_cycle;Signal;HPM_P1;HPM_P2
2022/10/12 00:00:40;;;;;;;9.38;5.72;;;8.00;99.90;;;;;;2089481;28;20529;-73
2022/10/12 00:01:41;;;;;;;8.38;6.00;;;8.00;99.90;;;;;;2089405;28;20033;-73
2022/10/12 00:02:42;;;;;;;10.85;6.43;;;8.00;99.90;;;;;;2089630;28;20025;-73
2022/10/12 00:03:43;;;;;;;8.45;5.43;;;8.00;99.90;;;;;;2088534;28;20033;-73
2022/10/12 00:04:43;;;;;;;12.70;6.10;;;8.00;99.90;;;;;;2091373;28;20033;-73
2022/10/12 00:05:44;;;;;;;10.82;5.63;;;8.00;99.90;;;;;;2090574;28;20040;-73
2022/10/12 00:06:45;;;;;;;9.00;6.07;;;8.00;99.90;;;;;;2088409;28;20032;-73
2022/10/12 00:07:45;;;;;;;11.15;5.75;;;7.90;99.90;;;;;;2091960;28;20476;-73
2022/10/12 00:08:48;;;;;;;8.25;5.13;;;7.90;99.90;;;;;;2086203;28;20423;-73
2022/10/12 00:09:48;;;;;;;10.00;5.85;;;7.90;99.90;;;;;;2093688;28;21414;-73
2022/10/12 00:10:49;;;;;;;8.95;5.25;;;7.90;99.90;;;;;;2090614;28;20844;-73
2022/10/12 00:11:49;;;;;;;11.05;5.80;;;7.90;99.90;;;;;;2090166;28;20110;-73
2022/10/12 00:12:50;;;;;;;8.48;5.10;;;7.90;99.90;;;;;;2090758;28;20029;-73
2022/10/12 00:13:51;;;;;;;8.48;5.53;;;7.90;99.90;;;;;;2089669;28;20036;-73
2022/10/12 00:14:52;;;;;;;9.43;5.07;;;7.90;99.90;;;;;;2090213;28;20131;-73
2022/10/12 00:15:52;;;;;;;8.98;5.13;;;7.90;99.90;;;;;;2092672;28;20021;-73
2022/10/12 00:16:53;;;;;;;8.85;5.47;;;7.90;99.90;;;;;;2090762;28;20036;-73
2022/10/12 00:17:53;;;;;;;9.20;5.10;;;7.90;99.90;;;;;;2090264;28;20020;-73
2022/10/12 00:18:56;;;;;;;12.65;5.82;;;7.90;99.90;;;;;;2088710;28;20032;-73
2022/10/12 00:19:57;;;;;;;6.97;4.55;;;7.80;99.90;;;;;;2090803;28;20033;-73
2022/10/12 00:21:03;;;;;;;10.32;5.45;;;7.80;99.90;;;;;;2089067;28;20391;-73
2022/10/12 00:22:03;;;;;;;7.10;4.88;;;7.80;99.90;;;;;;2092642;28;20060;-73
2022/10/12 00:23:04;;;;;;;7.65;4.80;;;7.80;99.90;;;;;;2092101;28;21609;-73
2022/10/12 00:24:05;;;;;;;6.45;5.28;;;7.80;99.90;;;;;;2090200;28;20033;-73
2022/10/12 00:25:06;;;;;;;11.13;5.50;;;7.80;99.90;;;;;;2090639;28;20451;-73
2022/10/12 00:26:15;;;;;;;8.77;5.18;;;7.80;99.90;;;;;;2089640;28;20025;-73
2022/10/12 00:27:16;;;;;;;11.88;5.75;;;7.80;99.90;;;;;;2090022;28;20082;-73
2022/10/12 00:28:16;;;;;;;8.55;5.03;;;7.70;99.90;;;;;;2089732;28;20075;-73
2022/10/12 00:29:17;;;;;;;8.48;5.40;;;7.70;99.90;;;;;;2091618;28;20067;-73
2022/10/12 00:30:18;;;;;;;10.35;6.00;;;7.70;99.90;;;;;;2087988;28;20025;-73
2022/10/12 00:31:19;;;;;;;13.82;5.28;;;7.70;99.90;;;;;;2085820;28;20082;-73
2022/10/12 00:32:20;;;;;;;8.05;5.85;;;7.70;99.90;;;;;;2090450;28;20074;-73
2022/10/12 00:33:21;;;;;;;8.82;4.88;;;7.70;99.90;;;;;;2088274;28;20029;-73
2022/10/12 00:34:21;;;;;;;9.80;5.07;;;7.70;99.90;;;;;;2089692;28;20032;-73
2022/10/12 00:35:22;;;;;;;8.68;5.35;;;7.70;99.90;;;;;;2089652;28;20837;-73
2022/10/12 00:36:25;;;;;;;10.13;5.20;;;7.70;99.90;;;;;;2088896;28;20378;-73
2022/10/12 00:37:26;;;;;;;8.13;5.00;;;7.70;99.90;;;;;;2086321;28;20021;-73
2022/10/12 00:38:26;;;;;;;10.07;4.90;;;7.60;99.90;;;;;;2089048;28;20040;-73
2022/10/12 00:39:27;;;;;;;11.02;5.32;;;7.60;99.90;;;;;;2088815;28;20677;-73
2022/10/12 00:40:27;;;;;;;8.23;5.38;;;7.60;99.90;;;;;;2089790;28;20029;-73
2022/10/12 00:41:35;;;;;;;8.52;5.13;;;7.60;99.90;;;;;;2089905;28;20786;-73
2022/10/12 00:42:36;;;;;;;7.35;4.60;;;7.60;99.90;;;;;;2089882;28;20060;-73
2022/10/12 00:43:40;;;;;;;8.27;4.93;;;7.60;99.90;;;;;;2090406;28;20032;-73
2022/10/12 00:44:46;;;;;;;7.35;4.20;;;7.60;99.90;;;;;;2091072;28;20023;-73
2022/10/12 00:45:47;;;;;;;9.73;4.82;;;7.60;99.90;;;;;;2089330;28;20481;-73
2022/10/12 00:46:47;;;;;;;8.38;5.07;;;7.60;99.90;;;;;;2088618;28;20431;-73
2022/10/12 00:47:51;;;;;;;6.88;4.68;;;7.50;99.90;;;;;;2092088;28;20429;-73
2022/10/12 00:49:01;;;;;;;7.22;4.78;;;7.60;99.90;;;;;;2088289;28;20519;-73
2022/10/12 00:50:23;;;;;;;7.30;4.72;;;7.50;99.90;;;;;;2088842;28;20374;-73
2022/10/12 00:51:24;;;;;;;7.82;5.63;;;7.50;99.90;;;;;;2089408;28;20029;-73
2022/10/12 00:52:37;;;;;;;8.15;5.15;;;7.50;99.90;;;;;;2089709;28;20128;-73
2022/10/12 00:53:44;;;;;;;7.20;4.47;;;7.50;99.90;;;;;;2090857;28;20157;-73
2022/10/12 00:54:48;;;;;;;6.55;4.57;;;7.50;99.90;;;;;;2090186;28;20043;-73
2022/10/12 00:55:58;;;;;;;5.22;4.43;;;7.40;99.90;;;;;;2090350;28;20025;-73
2022/10/12 00:57:00;;;;;;;10.05;4.65;;;7.40;99.90;;;;;;2090706;28;20028;-73
2022/10/12 00:58:02;;;;;;;7.05;4.78;;;7.40;99.90;;;;;;2092718;28;20083;-73
2022/10/12 00:59:07;;;;;;;6.65;4.60;;;7.40;99.90;;;;;;2092002;28;20017;-72
2022/10/12 01:00:09;;;;;;;7.22;5.00;;;7.40;99.90;;;;;;2090933;28;20028;-72
2022/10/12 01:01:10;;;;;;;5.18;4.57;;;7.40;99.90;;;;;;2090917;28;20021;-72
2022/10/12 01:02:12;;;;;;;8.45;4.55;;;7.40;99.90;;;;;;2091196;28;20520;-73
2022/10/12 01:03:16;;;;;;;7.72;4.97;;;7.40;99.90;;;;;;2091168;28;20994;-73
2022/10/12 01:04:17;;;;;;;9.63;5.00;;;7.40;99.90;;;;;;2091494;28;20074;-73
2022/10/12 01:05:19;;;;;;;8.00;4.85;;;7.40;99.90;;;;;;2090110;28;20017;-72
2022/10/12 01:06:19;;;;;;;9.65;4.72;;;7.30;99.90;;;;;;2094377;28;20145;-72
2022/10/12 01:07:20;;;;;;;6.50;4.97;;;7.30;99.90;;;;;;2095980;28;20078;-73
2022/10/12 01:08:21;;;;;;;6.32;4.75;;;7.30;99.90;;;;;;2094581;28;20022;-73
2022/10/12 01:09:22;;;;;;;6.35;4.90;;;7.30;99.90;;;;;;2094152;28;20020;-73
2022/10/12 01:10:22;;;;;;;8.50;4.78;;;7.30;99.90;;;;;;2095774;28;20107;-73
2022/10/12 01:11:23;;;;;;;10.85;4.95;;;7.30;99.90;;;;;;2093243;28;20974;-73
2022/10/12 01:12:25;;;;;;;6.20;4.50;;;7.30;99.90;;;;;;2088841;28;20104;-73
2022/10/12 01:13:25;;;;;;;7.13;4.95;;;7.30;99.90;;;;;;2090839;28;20025;-73
2022/10/12 01:14:26;;;;;;;6.85;5.20;;;7.30;99.90;;;;;;2092051;28;20104;-73
2022/10/12 01:15:33;;;;;;;10.02;4.68;;;7.30;99.90;;;;;;2092702;28;20116;-73
2022/10/12 01:16:43;;;;;;;8.10;4.28;;;7.30;99.90;;;;;;2092634;28;20086;-73
2022/10/12 01:17:52;;;;;;;8.35;5.10;;;7.30;99.90;;;;;;2090268;28;20012;-73
2022/10/12 01:19:14;;;;;;;6.43;4.40;;;7.20;99.90;;;;;;2091932;28;20055;-73
2022/10/12 01:20:33;;;;;;;10.38;4.65;;;7.20;99.90;;;;;;2089737;28;20363;-73
2022/10/12 01:21:38;;;;;;;8.32;4.60;;;7.20;99.90;;;;;;2089908;28;20043;-73
2022/10/12 01:22:45;;;;;;;6.57;4.25;;;7.20;99.90;;;;;;2090638;28;20025;-73
2022/10/12 01:24:04;;;;;;;9.63;4.93;;;7.20;99.90;;;;;;2090355;28;20029;-72
2022/10/12 01:25:23;;;;;;;6.47;4.03;;;7.10;99.90;;;;;;2092270;28;20029;-72
2022/10/12 01:26:35;;;;;;;5.60;4.30;;;7.10;99.90;;;;;;2092737;28;20115;-72
2022/10/12 01:27:47;;;;;;;8.35;4.47;;;7.10;99.90;;;;;;2089301;28;20082;-73
2022/10/12 01:29:06;;;;;;;5.45;4.43;;;7.10;99.90;;;;;;2090305;28;20029;-73
2022/10/12 01:30:12;;;;;;;9.65;4.95;;;7.10;99.90;;;;;;2092775;28;20032;-73
2022/10/12 01:31:12;;;;;;;8.82;4.68;;;7.10;99.90;;;;;;2091151;28;20136;-73
2022/10/12 01:32:22;;;;;;;8.48;5.40;;;7.10;99.90;;;;;;2091249;28;20059;-74
2022/10/12 01:33:23;;;;;;;;;;;7.10;99.90;;;;;;2092375;28;20028;-73
2022/10/12 01:34:42;;;;;;;7.72;4.57;;;7.00;99.90;;;;;;2089760;28;19952;-73
2022/10/12 01:36:14;;;;;;;8.40;4.70;;;7.00;99.90;;;;;;2090118;28;20029;-73
2022/10/12 01:37:36;;;;;;;7.47;4.55;;;7.00;99.90;;;;;;2092351;28;20033;-73
2022/10/12 01:38:58;;;;;;;7.47;4.90;;;7.00;99.90;;;;;;2092348;28;20021;-73
2022/10/12 01:40:03;;;;;;;8.13;5.30;;;7.00;99.90;;;;;;2090961;28;20029;-73
2022/10/12 01:41:23;;;;;;;6.88;4.43;;;6.90;99.90;;;;;;2091794;28;20078;-73
2022/10/12 01:42:31;;;;;;;8.90;4.90;;;7.00;99.90;;;;;;2091724;28;20028;-73
2022/10/12 01:43:37;;;;;;;7.80;4.40;;;7.00;99.90;;;;;;2090747;28;20032;-73
2022/10/12 01:44:37;;;;;;;8.25;4.53;;;7.00;99.90;;;;;;2091964;28;20151;-73
2022/10/12 01:45:38;;;;;;;6.47;4.07;;;7.00;99.90;;;;;;2093333;28;20028;-72
2022/10/12 01:46:40;;;;;;;9.05;5.43;;;7.00;99.90;;;;;;2093791;28;20045;-72
2022/10/12 01:47:43;;;;;;;5.72;4.40;;;7.00;99.90;;;;;;2092298;28;20033;-73
2022/10/12 01:48:50;;;;;;;8.45;4.95;;;7.00;99.90;;;;;;2090880;28;20025;-73
2022/10/12 01:49:51;;;;;;;8.32;4.82;;;7.00;99.90;;;;;;2091331;28;20515;-73
2022/10/12 01:50:55;;;;;;;6.93;4.53;;;7.00;99.90;;;;;;2092714;28;20488;-73
2022/10/12 01:52:14;;;;;;;7.13;4.03;;;7.00;99.90;;;;;;2091635;28;20032;-73
2022/10/12 01:53:34;;;;;;;7.75;4.63;;;6.90;99.90;;;;;;2089024;28;20051;-72
2022/10/12 01:54:54;;;;;;;5.78;4.00;;;6.90;99.90;;;;;;2089862;28;20060;-73
2022/10/12 01:56:22;;;;;;;6.68;4.30;;;6.90;99.90;;;;;;2091645;28;21569;-72
2022/10/12 01:57:48;;;;;;;6.40;4.40;;;6.90;99.90;;;;;;2091301;28;20028;-73
2022/10/12 01:59:17;;;;;;;9.32;5.03;;;6.90;99.90;;;;;;2090528;28;20025;-73
2022/10/12 02:00:18;;;;;;;7.18;4.47;;;6.80;99.90;;;;;;2088791;28;20032;-73
2022/10/12 02:01:49;;;;;;;6.82;4.50;;;6.80;99.90;;;;;;2093161;28;20472;-73
2022/10/12 02:03:19;;;;;;;8.77;4.85;;;6.80;99.90;;;;;;2092311;28;20529;-73
2022/10/12 02:04:32;;;;;;;5.22;4.03;;;6.80;99.90;;;;;;2092146;28;20039;-73
2022/10/12 02:05:55;;;;;;;7.53;4.32;;;6.80;99.90;;;;;;2087923;28;20036;-73
2022/10/12 02:07:04;;;;;;;7.63;4.75;;;6.70;99.90;;;;;;2091750;28;20028;-73
2022/10/12 02:08:17;;;;;;;6.47;3.92;;;6.70;99.90;;;;;;2095114;28;20047;-73
2022/10/12 02:09:30;;;;;;;9.52;4.28;;;6.70;99.90;;;;;;2094479;28;20028;-73
2022/10/12 02:11:02;;;;;;;11.38;4.93;;;6.70;99.90;;;;;;2092594;28;20700;-73
2022/10/12 02:12:17;;;;;;;6.65;4.50;;;6.70;99.90;;;;;;2090633;28;20381;-72
2022/10/12 02:13:21;;;;;;;6.35;4.63;;;6.70;99.90;;;;;;2090854;28;20028;-73
2022/10/12 02:14:27;;;;;;;7.00;4.25;;;6.70;99.90;;;;;;2090328;28;20513;-73
2022/10/12 02:15:29;;;;;;;10.50;4.40;;;6.70;99.90;;;;;;2089726;28;20036;-73
2022/10/12 02:16:37;;;;;;;4.95;4.10;;;6.70;99.90;;;;;;2090666;28;20032;-72
2022/10/12 02:17:40;;;;;;;5.38;3.58;;;6.70;99.90;;;;;;2090702;28;20025;-73
2022/10/12 02:18:49;;;;;;;6.05;4.40;;;6.70;99.90;;;;;;2092320;28;20037;-73
2022/10/12 02:19:56;;;;;;;7.43;4.22;;;6.70;99.90;;;;;;2090766;28;20028;-73
2022/10/12 02:20:59;;;;;;;11.45;4.82;;;6.70;99.90;;;;;;2090474;28;20127;-72
2022/10/12 02:22:03;;;;;;;5.82;3.95;;;6.70;99.90;;;;;;2090740;28;20779;-73
2022/10/12 02:23:04;;;;;;;5.97;4.47;;;6.70;99.90;;;;;;2091253;28;20024;-73
2022/10/12 02:24:08;;;;;;;9.57;4.40;;;6.70;99.90;;;;;;2093286;28;20028;-72
2022/10/12 02:25:14;;;;;;;5.68;3.85;;;6.70;99.90;;;;;;2093733;28;20016;-72
2022/10/12 02:26:16;;;;;;;6.35;4.53;;;6.70;99.90;;;;;;2091023;28;20083;-72
2022/10/12 02:27:18;;;;;;;6.07;4.60;;;6.70;99.90;;;;;;2091899;28;20032;-73
2022/10/12 02:28:22;;;;;;;6.20;4.32;;;6.70;99.90;;;;;;2090713;28;20033;-73
2022/10/12 02:29:34;;;;;;;7.25;4.40;;;6.70;99.90;;;;;;2090528;28;20069;-73
2022/10/12 02:31:04;;;;;;;7.32;4.47;;;6.60;99.90;;;;;;2093787;28;20063;-72
2022/10/12 02:32:34;;;;;;;7.03;4.10;;;6.60;99.90;;;;;;2090890;28;20071;-73
2022/10/12 02:33:56;;;;;;;10.57;4.57;;;6.60;99.90;;;;;;2091518;28;20040;-73
2022/10/12 02:35:19;;;;;;;7.32;3.50;;;6.60;99.90;;;;;;2089836;28;20067;-73
2022/10/12 02:36:28;;;;;;;7.72;4.25;;;6.60;99.90;;;;;;2090129;28;20041;-73
2022/10/12 02:37:47;;;;;;;6.25;4.00;;;6.50;99.90;;;;;;2091367;28;20090;-72
2022/10/12 02:39:19;;;;;;;5.93;4.50;;;6.50;99.90;;;;;;2095287;28;20032;-73
2022/10/12 02:40:43;;;;;;;5.10;4.05;;;6.50;99.90;;;;;;2085158;28;20036;-72
2022/10/12 02:41:49;;;;;;;7.35;4.53;;;6.50;99.90;;;;;;2089591;28;20025;-72
2022/10/12 02:43:00;;;;;;;11.10;4.25;;;6.50;99.90;;;;;;2090353;28;20024;-73
2022/10/12 02:44:05;;;;;;;5.68;4.47;;;6.50;99.90;;;;;;2092329;28;20021;-73
2022/10/12 02:45:08;;;;;;;7.38;4.28;;;6.50;99.90;;;;;;2089629;28;20029;-73
2022/10/12 02:46:10;;;;;;;8.93;4.80;;;6.50;99.90;;;;;;2090517;28;20019;-73
2022/10/12 02:47:11;;;;;;;7.75;3.80;;;6.50;99.90;;;;;;2090557;28;20024;-73
2022/10/12 02:48:17;;;;;;;7.65;4.15;;;6.50;99.90;;;;;;2090878;28;20033;-73
2022/10/12 02:49:20;;;;;;;6.65;4.10;;;6.50;99.90;;;;;;2090059;28;20116;-73
2022/10/12 02:50:22;;;;;;;8.88;4.82;;;6.60;99.90;;;;;;2091003;28;20017;-73
2022/10/12 02:51:23;;;;;;;6.85;4.10;;;6.50;99.90;;;;;;2090806;28;20059;-73
2022/10/12 02:52:24;;;;;;;5.18;4.13;;;6.50;99.90;;;;;;2090060;28;20210;-73
2022/10/12 02:53:27;;;;;;;5.78;3.80;;;6.50;99.90;;;;;;2090828;28;20052;-73
2022/10/12 02:54:28;;;;;;;4.88;3.85;;;6.50;99.90;;;;;;2091028;28;20027;-73
2022/10/12 02:55:30;;;;;;;5.95;4.18;;;6.50;99.90;;;;;;2089680;28;20100;-73
2022/10/12 02:56:30;;;;;;;8.80;4.97;;;6.50;99.90;;;;;;2089784;28;20031;-73
2022/10/12 02:57:31;;;;;;;5.85;4.00;;;6.60;99.90;;;;;;2092324;28;20031;-73
2022/10/12 02:58:31;;;;;;;6.70;4.13;;;6.50;99.90;;;;;;2092433;28;20028;-73
2022/10/12 02:59:32;;;;;;;5.97;3.58;;;6.50;99.90;;;;;;2090627;28;20021;-73
2022/10/12 03:00:33;;;;;;;7.63;3.85;;;6.50;99.90;;;;;;2091577;28;20025;-73
2022/10/12 03:01:34;;;;;;;5.55;3.85;;;6.60;99.90;;;;;;2090517;28;20454;-72
2022/10/12 03:02:34;;;;;;;8.10;4.50;;;6.50;99.90;;;;;;2091928;28;20021;-73
2022/10/12 03:03:35;;;;;;;9.05;3.97;;;6.50;99.90;;;;;;2089747;28;20031;-73
2022/10/12 03:04:36;;;;;;;6.78;4.40;;;6.50;99.90;;;;;;2091114;28;20032;-73
2022/10/12 03:05:36;;;;;;;5.38;4.00;;;6.50;99.90;;;;;;2093253;28;20023;-73
2022/10/12 03:06:37;;;;;;;6.65;3.88;;;6.50;99.90;;;;;;2093209;28;20079;-73
2022/10/12 03:07:37;;;;;;;7.78;4.72;;;6.50;99.90;;;;;;2091895;28;20074;-72
2022/10/12 03:08:38;;;;;;;7.43;4.22;;;6.50;99.90;;;;;;2089987;28;20029;-72
2022/10/12 03:09:39;;;;;;;8.25;4.53;;;6.50;99.90;;;;;;2091455;28;20023;-73
2022/10/12 03:10:39;;;;;;;7.05;3.78;;;6.50;99.90;;;;;;2090140;28;20047;-72
2022/10/12 03:11:43;;;;;;;8.10;4.38;;;6.50;99.90;;;;;;2089007;28;20419;-72
2022/10/12 03:12:44;;;;;;;7.57;4.70;;;6.50;99.90;;;;;;2093103;28;20016;-72
2022/10/12 03:13:44;;;;;;;6.70;4.63;;;6.50;99.90;;;;;;2090400;28;20082;-73
2022/10/12 03:14:45;;;;;;;7.97;4.65;;;6.50;99.90;;;;;;2091797;28;20037;-73
2022/10/12 03:15:45;;;;;;;7.75;5.55;;;6.50;99.90;;;;;;2088592;28;20761;-73
2022/10/12 03:16:47;;;;;;;6.13;4.47;;;6.50;99.90;;;;;;2092316;28;20028;-73
2022/10/12 03:17:47;;;;;;;6.90;3.75;;;6.50;99.90;;;;;;2091028;28;20419;-73
2022/10/12 03:18:48;;;;;;;9.38;3.88;;;6.50;99.90;;;;;;2089726;28;20028;-73
2022/10/12 03:19:48;;;;;;;5.90;3.90;;;6.50;99.90;;;;;;2090484;28;20070;-72
2022/10/12 03:20:49;;;;;;;6.30;4.50;;;6.50;99.90;;;;;;2089645;28;20047;-72
2022/10/12 03:21:49;;;;;;;5.93;4.18;;;6.50;99.90;;;;;;2091723;28;20029;-73
2022/10/12 03:22:50;;;;;;;5.28;4.20;;;6.40;99.90;;;;;;2090144;28;20033;-73
2022/10/12 03:23:50;;;;;;;7.38;4.40;;;6.50;99.90;;;;;;2089826;28;20035;-73
2022/10/12 03:24:51;;;;;;;7.75;4.10;;;6.50;99.90;;;;;;2090628;28;20066;-73
2022/10/12 03:25:52;;;;;;;4.93;3.75;;;6.50;99.90;;;;;;2090507;28;20033;-73
2022/10/12 03:26:52;;;;;;;6.03;3.90;;;6.50;99.90;;;;;;2092103;28;20029;-73
2022/10/12 03:27:53;;;;;;;6.13;4.28;;;6.40;99.90;;;;;;2090667;28;20029;-73
2022/10/12 03:28:53;;;;;;;7.75;4.47;;;6.40;99.90;;;;;;2090030;28;20032;-73
2022/10/12 03:29:54;;;;;;;6.85;4.38;;;6.40;99.90;;;;;;2090962;28;20072;-73
2022/10/12 03:30:54;;;;;;;6.65;4.40;;;6.40;99.90;;;;;;2088959;28;20043;-73
2022/10/12 03:31:55;;;;;;;9.10;4.85;;;6.40;99.90;;;;;;2089729;28;20029;-73
2022/10/12 03:32:55;;;;;;;10.60;4.57;;;6.40;99.90;;;;;;2090706;28;20476;-73
2022/10/12 03:33:56;;;;;;;7.47;4.13;;;6.40;99.90;;;;;;2088699;28;20483;-72
2022/10/12 03:34:57;;;;;;;6.43;4.30;;;6.40;99.90;;;;;;2090153;28;20025;-73
2022/10/12 03:35:58;;;;;;;6.75;3.80;;;6.40;99.90;;;;;;2091071;28;20048;-73
2022/10/12 03:36:59;;;;;;;8.05;3.63;;;6.40;99.90;;;;;;2091602;28;20029;-73
2022/10/12 03:37:59;;;;;;;8.70;3.85;;;6.40;99.90;;;;;;2089312;28;20045;-73
2022/10/12 03:39:00;;;;;;;7.95;4.60;;;6.40;99.90;;;;;;2092324;28;20460;-73
2022/10/12 03:40:01;;;;;;;6.28;4.47;;;6.40;99.90;;;;;;2089474;28;20396;-73
2022/10/12 03:41:01;;;;;;;5.82;4.10;;;6.40;99.90;;;;;;2091533;28;20025;-73
2022/10/12 03:42:02;;;;;;;7.43;4.20;;;6.30;99.90;;;;;;2091165;28;20033;-73
2022/10/12 03:43:02;;;;;;;5.75;4.18;;;6.30;99.90;;;;;;2091030;28;20064;-73
2022/10/12 03:44:03;;;;;;;5.82;4.22;;;6.30;99.90;;;;;;2091542;28;20040;-73
2022/10/12 03:45:04;;;;;;;5.13;4.13;;;6.30;99.90;;;;;;2091912;28;20028;-73
2022/10/12 03:46:04;;;;;;;4.70;4.05;;;6.30;99.90;;;;;;2087998;28;20024;-73
2022/10/12 03:47:05;;;;;;;7.95;4.13;;;6.30;99.90;;;;;;2092882;28;20048;-73
2022/10/12 03:48:06;;;;;;;8.95;4.43;;;6.30;99.90;;;;;;2088128;28;20017;-73
2022/10/12 03:49:06;;;;;;;6.05;4.25;;;6.30;99.90;;;;;;2092489;28;20032;-73
2022/10/12 03:50:07;;;;;;;11.60;4.60;;;6.30;99.90;;;;;;2091517;28;20021;-73
2022/10/12 03:51:08;;;;;;;7.63;4.50;;;6.30;99.90;;;;;;2090527;28;20036;-73
2022/10/12 03:52:09;;;;;;;10.57;4.65;;;6.30;99.90;;;;;;2090746;28;20029;-73
2022/10/12 03:53:09;;;;;;;7.25;4.57;;;6.30;99.90;;;;;;2089424;28;20115;-73
2022/10/12 03:54:10;;;;;;;7.10;4.60;;;6.30;99.90;;;;;;2090057;28;20080;-73
2022/10/12 03:55:10;;;;;;;7.78;4.15;;;6.30;99.90;;;;;;2090501;28;20054;-73
2022/10/12 03:56:11;;;;;;;7.85;4.70;;;6.30;99.90;;;;;;2090572;28;20066;-73
2022/10/12 03:57:11;;;;;;;6.03;4.22;;;6.30;99.90;;;;;;2089537;28;20047;-73
2022/10/12 03:58:12;;;;;;;5.97;4.15;;;6.20;99.90;;;;;;2089419;28;20029;-73
2022/10/12 03:59:13;;;;;;;7.82;5.13;;;6.20;99.90;;;;;;2092996;28;20021;-73
2022/10/12 04:00:14;;;;;;;6.68;4.40;;;6.20;99.90;;;;;;2086025;28;20044;-73
2022/10/12 04:01:14;;;;;;;5.55;3.88;;;6.20;99.90;;;;;;2083356;28;20055;-73
2022/10/12 04:02:15;;;;;;;6.03;4.70;;;6.20;99.90;;;;;;2092849;28;20033;-73
2022/10/12 04:03:15;;;;;;;5.90;4.32;;;6.20;99.90;;;;;;2090107;28;20051;-73
2022/10/12 04:04:16;;;;;;;7.05;4.70;;;6.20;99.90;;;;;;2088898;28;20029;-73
2022/10/12 04:05:16;;;;;;;8.25;4.20;;;6.20;99.90;;;;;;2088303;28;20541;-73
2022/10/12 04:06:17;;;;;;;6.10;4.25;;;6.20;99.90;;;;;;2089791;28;20463;-73
2022/10/12 04:07:18;;;;;;;5.32;4.15;;;6.20;99.90;;;;;;2089489;28;20056;-73
2022/10/12 04:08:19;;;;;;;6.45;4.50;;;6.20;99.90;;;;;;2089760;28;20071;-73
2022/10/12 04:09:19;;;;;;;7.80;4.15;;;6.20;99.90;;;;;;2090137;28;20100;-73
2022/10/12 04:10:20;;;;;;;13.98;4.50;;;6.20;99.90;;;;;;2089088;28;20029;-73
2022/10/12 04:11:20;;;;;;;6.60;4.40;;;6.20;99.90;;;;;;2090303;28;20082;-73
2022/10/12 04:12:21;;;;;;;5.78;4.25;;;6.20;99.90;;;;;;2090805;28;20020;-73
2022/10/12 04:13:21;;;;;;;7.03;4.35;;;6.20;99.90;;;;;;2091412;28;20491;-73
2022/10/12 04:14:22;;;;;;;9.02;4.20;;;6.20;99.90;;;;;;2092173;28;20048;-73
2022/10/12 04:15:22;;;;;;;9.43;4.63;;;6.20;99.90;;;;;;2089615;28;20045;-73
2022/10/12 04:16:23;;;;;;;6.45;4.07;;;6.20;99.90;;;;;;2090649;28;20017;-73
2022/10/12 04:17:23;;;;;;;8.27;4.68;;;6.20;99.90;;;;;;2090384;28;20104;-73
2022/10/12 04:18:24;;;;;;;8.00;4.70;;;6.10;99.90;;;;;;2090092;28;20721;-73
2022/10/12 04:19:24;;;;;;;5.30;3.85;;;6.10;99.90;;;;;;2089638;28;20534;-73
2022/10/12 04:20:25;;;;;;;4.93;4.10;;;6.10;99.90;;;;;;2087987;28;20021;-73
2022/10/12 04:21:30;;;;;;;5.78;4.65;;;6.10;99.90;;;;;;2090067;28;20029;-73
2022/10/12 04:22:30;;;;;;;5.88;4.20;;;6.10;99.90;;;;;;2089691;28;20024;-73
2022/10/12 04:23:31;;;;;;;8.00;4.57;;;6.10;99.90;;;;;;2088720;28;20054;-73
2022/10/12 04:24:31;;;;;;;6.43;3.88;;;6.10;99.90;;;;;;2089451;28;20098;-73
2022/10/12 04:25:32;;;;;;;6.22;4.32;;;6.10;99.90;;;;;;2087545;28;20083;-73
2022/10/12 04:26:33;;;;;;;6.28;4.45;;;6.10;99.90;;;;;;2089087;28;20162;-73
2022/10/12 04:27:33;;;;;;;7.85;4.50;;;6.10;99.90;;;;;;2089208;28;20191;-73
2022/10/12 04:28:34;;;;;;;5.63;3.92;;;6.10;99.90;;;;;;2089807;28;20033;-73
2022/10/12 04:29:36;;;;;;;7.53;4.45;;;6.10;99.90;;;;;;2089434;28;20064;-73
2022/10/12 04:30:36;;;;;;;15.82;5.28;;;6.10;99.90;;;;;;2090160;28;20456;-73
2022/10/12 04:31:37;;;;;;;5.57;4.78;;;6.10;99.90;;;;;;2091140;28;20033;-73
2022/10/12 04:32:37;;;;;;;5.30;4.38;;;6.10;99.90;;;;;;2089223;28;20411;-73
2022/10/12 04:33:38;;;;;;;5.57;4.07;;;6.10;99.90;;;;;;2088378;28;20400;-73
2022/10/12 04:34:38;;;;;;;6.63;4.20;;;6.10;99.90;;;;;;2089794;28;20016;-73
2022/10/12 04:35:39;;;;;;;6.88;4.53;;;6.10;99.90;;;;;;2089373;28;20029;-73
2022/10/12 04:36:39;;;;;;;4.43;4.03;;;6.10;99.90;;;;;;2091011;28;20127;-73
2022/10/12 04:37:40;;;;;;;5.05;4.05;;;6.10;99.90;;;;;;2088996;28;20099;-73
2022/10/12 04:38:40;;;;;;;6.45;4.35;;;6.10;99.90;;;;;;2089753;28;20052;-73
2022/10/12 04:39:41;;;;;;;8.98;4.82;;;6.10;99.90;;;;;;2090785;28;20032;-73
2022/10/12 04:40:48;;;;;;;8.02;5.22;;;6.10;99.90;;;;;;2090375;28;20067;-73
2022/10/12 04:41:48;;;;;;;8.00;4.38;;;6.20;99.90;;;;;;2089273;28;20029;-73
2022/10/12 04:42:49;;;;;;;8.55;4.97;;;6.20;99.90;;;;;;2089385;28;20091;-73
2022/10/12 04:43:52;;;;;;;7.78;4.60;;;6.20;99.90;;;;;;2089346;28;20540;-73
2022/10/12 04:44:52;;;;;;;6.68;5.05;;;6.10;99.90;;;;;;2090755;28;20032;-73
2022/10/12 04:45:57;;;;;;;10.65;5.25;;;6.10;99.90;;;;;;2091438;28;20056;-73
2022/10/12 04:46:59;;;;;;;6.68;4.70;;;6.20;99.90;;;;;;2089956;28;20047;-73
2022/10/12 04:47:59;;;;;;;7.72;4.32;;;6.20;99.90;;;;;;2089914;28;20036;-73
2022/10/12 04:49:00;;;;;;;6.07;4.35;;;6.20;99.90;;;;;;2090389;28;20054;-73
2022/10/12 04:50:01;;;;;;;7.45;4.50;;;6.20;99.90;;;;;;2087091;28;20447;-73
2022/10/12 04:51:01;;;;;;;5.93;4.40;;;6.10;99.90;;;;;;2090860;28;20033;-73
2022/10/12 04:52:02;;;;;;;5.70;4.28;;;6.20;99.90;;;;;;2087906;28;20410;-73
2022/10/12 04:53:02;;;;;;;5.57;4.15;;;6.20;99.90;;;;;;2089618;28;20017;-73
2022/10/12 04:54:03;;;;;;;6.20;4.25;;;6.20;99.90;;;;;;2089056;28;20051;-73
2022/10/12 04:55:04;;;;;;;6.93;4.50;;;6.20;99.90;;;;;;2089396;28;20033;-73
2022/10/12 04:56:05;;;;;;;6.60;4.45;;;6.20;99.90;;;;;;2089429;28;20466;-73
2022/10/12 04:57:06;;;;;;;5.70;4.10;;;6.20;99.90;;;;;;2088693;28;20029;-73
2022/10/12 04:58:06;;;;;;;6.65;3.90;;;6.20;99.90;;;;;;2090525;28;20135;-73
2022/10/12 04:59:07;;;;;;;7.10;4.90;;;6.20;99.90;;;;;;2089546;28;20092;-73
2022/10/12 05:00:08;;;;;;;7.28;4.45;;;6.20;99.90;;;;;;2089457;28;20070;-73
2022/10/12 05:01:09;;;;;;;10.25;5.22;;;6.30;99.90;;;;;;2082054;28;20032;-72
2022/10/12 05:02:10;;;;;;;8.73;5.35;;;6.30;99.90;;;;;;2090125;28;20020;-72
2022/10/12 05:03:10;;;;;;;6.70;4.78;;;6.30;99.90;;;;;;2089619;28;20033;-72
2022/10/12 05:04:11;;;;;;;6.03;4.35;;;6.30;99.90;;;;;;2089686;28;20029;-72
2022/10/12 05:05:11;;;;;;;7.07;4.70;;;6.30;99.90;;;;;;2091001;28;20025;-72
2022/10/12 05:06:12;;;;;;;6.95;4.45;;;6.30;99.90;;;;;;2088399;28;20108;-72
2022/10/12 05:07:13;;;;;;;6.45;4.43;;;6.30;99.90;;;;;;2089059;28;21837;-72
2022/10/12 05:08:13;;;;;;;12.48;4.90;;;6.30;99.90;;;;;;2089350;28;20032;-72
2022/10/12 05:09:14;;;;;;;8.00;5.07;;;6.30;99.90;;;;;;2089208;28;20492;-72
2022/10/12 05:10:14;;;;;;;10.98;4.80;;;6.30;99.90;;;;;;2090306;28;20096;-72
2022/10/12 05:11:15;;;;;;;5.93;4.85;;;6.30;99.90;;;;;;2090400;28;20024;-72
2022/10/12 05:12:15;;;;;;;11.10;5.15;;;6.30;99.90;;;;;;2089619;28;20542;-72
2022/10/12 05:13:16;;;;;;;8.95;5.03;;;6.30;99.90;;;;;;2089194;28;20063;-72
2022/10/12 05:14:16;;;;;;;7.43;4.43;;;6.40;99.90;;;;;;2087765;28;20036;-72
2022/10/12 05:15:17;;;;;;;8.45;4.57;;;6.30;99.90;;;;;;2091157;28;20384;-72
2022/10/12 05:16:17;;;;;;;9.05;5.05;;;6.40;99.90;;;;;;2089710;28;20021;-72
2022/10/12 05:17:18;;;;;;;6.43;4.40;;;6.40;99.90;;;;;;2089547;28;20744;-72
2022/10/12 05:18:18;;;;;;;7.45;4.75;;;6.40;99.90;;;;;;2087804;28;20104;-72
2022/10/12 05:19:19;;;;;;;7.35;5.20;;;6.40;99.90;;;;;;2091378;28;20021;-72
2022/10/12 05:20:20;;;;;;;9.38;4.95;;;6.40;99.90;;;;;;2090171;28;20033;-72
2022/10/12 05:21:20;;;;;;;7.15;5.28;;;6.40;99.90;;;;;;2089366;28;20032;-72
2022/10/12 05:22:21;;;;;;;9.70;4.88;;;6.40;99.90;;;;;;2089868;28;20021;-72
2022/10/12 05:23:21;;;;;;;9.70;4.72;;;6.40;99.90;;;;;;2091440;28;20028;-72
2022/10/12 05:24:22;;;;;;;7.82;5.03;;;6.40;99.90;;;;;;2090580;28;20487;-72
2022/10/12 05:25:22;;;;;;;8.25;5.20;;;6.40;99.90;;;;;;2091185;28;20476;-72
2022/10/12 05:26:23;;;;;;;12.10;4.70;;;6.40;99.90;;;;;;2088188;28;20037;-72
2022/10/12 05:27:23;;;;;;;7.05;4.93;;;6.40;99.90;;;;;;2091323;28;20062;-72
2022/10/12 05:28:24;;;;;;;11.75;5.32;;;6.40;99.90;;;;;;2088694;28;20036;-72
2022/10/12 05:29:25;;;;;;;8.63;5.40;;;6.50;99.90;;;;;;2090614;28;20091;-72
2022/10/12 05:30:25;;;;;;;10.10;5.30;;;6.40;99.90;;;;;;2089461;28;20024;-72
2022/10/12 05:31:26;;;;;;;10.32;5.10;;;6.50;99.90;;;;;;2088816;28;20037;-72
2022/10/12 05:32:26;;;;;;;7.97;4.53;;;6.50;99.90;;;;;;2090414;28;20025;-72
2022/10/12 05:33:27;;;;;;;8.50;5.50;;;6.50;99.90;;;;;;2088576;28;20025;-72
2022/10/12 05:34:27;;;;;;;7.47;5.20;;;6.50;99.90;;;;;;2090496;28;21521;-72
2022/10/12 05:35:28;;;;;;;8.60;5.30;;;6.50;99.90;;;;;;2090460;28;20024;-72
2022/10/12 05:36:28;;;;;;;12.13;4.97;;;6.50;99.90;;;;;;2090387;28;20116;-72